createdAt,value
2018-12-02T00:02:27.596Z,28.10
2018-12-02T00:04:57.279Z,26.43
2018-12-02T00:07:27.377Z,27.47
2018-12-02T00:09:56.963Z,26.67
2018-12-02T00:12:27.209Z,26.20
2018-12-02T00:14:56.801Z,28.30
2018-12-02T00:17:27.207Z,26.00
2018-12-02T00:19:56.774Z,26.23
2018-12-02T00:22:26.255Z,25.17
2018-12-02T00:24:55.719Z,25.90
2018-12-02T00:27:25.675Z,25.93
2018-12-02T00:29:55.180Z,26.73
2018-12-02T00:32:25.139Z,28.77
2018-12-02T00:34:54.898Z,27.40
2018-12-02T00:37:24.470Z,24.97
2018-12-02T00:39:54.029Z,24.43
2018-12-02T00:42:23.529Z,24.87
2018-12-02T00:44:53.024Z,24.37
2018-12-02T00:47:22.719Z,24.17
2018-12-02T00:49:52.335Z,24.57
2018-12-02T00:52:21.837Z,24.10
2018-12-02T00:54:51.402Z,25.10
2018-12-02T00:57:20.943Z,26.07
2018-12-02T00:59:50.474Z,25.63
2018-12-02T01:02:20.002Z,25.27
2018-12-02T01:04:49.630Z,25.93
2018-12-02T01:07:19.342Z,24.60
2018-12-02T01:09:49.581Z,26.73
2018-12-02T01:12:19.132Z,25.63
2018-12-02T01:14:49.121Z,26.37
2018-12-02T01:17:18.842Z,25.13
2018-12-02T01:19:49.116Z,25.37
2018-12-02T01:22:18.696Z,24.83
2018-12-02T01:24:48.562Z,25.33
2018-12-02T01:27:18.127Z,26.90
2018-12-02T01:29:47.812Z,24.43
2018-12-02T01:32:17.404Z,25.93
2018-12-02T01:34:47.194Z,25.57
2018-12-02T01:37:16.809Z,24.60
2018-12-02T01:39:46.547Z,24.47
2018-12-02T01:42:16.011Z,24.03
2018-12-02T01:44:45.568Z,26.23
2018-12-02T01:47:15.076Z,23.97
2018-12-02T01:49:44.552Z,24.97
2018-12-02T01:52:14.102Z,24.37
2018-12-02T01:54:43.961Z,24.63
2018-12-02T01:57:13.529Z,23.37
2018-12-02T01:59:43.010Z,23.93
2018-12-02T02:02:12.514Z,26.43
2018-12-02T02:04:42.113Z,23.37
2018-12-02T02:07:11.601Z,23.77
2018-12-02T02:09:42.443Z,24.20
2018-12-02T02:12:12.021Z,24.67
2018-12-02T02:14:41.515Z,22.83
2018-12-02T02:17:11.086Z,24.33
2018-12-02T02:19:40.770Z,24.60
2018-12-02T02:22:10.632Z,26.13
2018-12-02T02:24:41.218Z,24.00
2018-12-02T02:27:12.711Z,24.73
2018-12-02T02:29:42.195Z,23.53
2018-12-02T02:32:11.635Z,23.33
2018-12-02T02:34:41.088Z,23.13
2018-12-02T02:37:10.608Z,24.63
2018-12-02T02:39:41.458Z,25.13
2018-12-02T02:42:10.935Z,24.10
2018-12-02T02:44:40.452Z,25.47
2018-12-02T02:47:10.037Z,25.83
2018-12-02T02:49:39.623Z,24.50
2018-12-02T02:52:09.166Z,25.43
2018-12-02T02:54:39.408Z,25.50
2018-12-02T02:57:08.944Z,25.27
2018-12-02T02:59:38.464Z,24.90
2018-12-02T03:02:07.948Z,24.90
2018-12-02T03:04:37.536Z,27.53
2018-12-02T03:07:07.086Z,25.00
2018-12-02T03:09:36.707Z,26.00
2018-12-02T03:12:06.301Z,25.70
2018-12-02T03:14:35.782Z,26.93
2018-12-02T03:17:05.600Z,24.37
2018-12-02T03:19:38.401Z,25.30
2018-12-02T03:22:08.870Z,26.77
2018-12-02T03:24:41.579Z,27.67
2018-12-02T03:27:11.214Z,24.27
2018-12-02T03:29:40.665Z,25.37
2018-12-02T03:32:10.682Z,25.23
2018-12-02T03:34:40.171Z,24.73
2018-12-02T03:37:10.103Z,23.67
2018-12-02T03:39:40.625Z,24.87
2018-12-02T03:42:10.674Z,23.53
2018-12-02T03:44:40.693Z,22.87
2018-12-02T03:47:11.120Z,22.80
2018-12-02T03:49:40.699Z,23.03
2018-12-02T03:52:11.009Z,24.07
2018-12-02T03:54:42.000Z,23.30
2018-12-02T03:57:12.098Z,23.17
2018-12-02T03:59:41.672Z,23.03
2018-12-02T04:02:11.566Z,22.83
2018-12-02T04:04:41.002Z,22.43
2018-12-02T04:07:10.612Z,20.57
2018-12-02T04:09:41.570Z,22.63
2018-12-02T04:12:11.702Z,23.03
2018-12-02T04:14:41.243Z,22.17
2018-12-02T04:17:11.174Z,21.17
2018-12-02T04:19:40.636Z,22.80
2018-12-02T04:22:10.342Z,22.80
2018-12-02T04:24:40.882Z,21.50
2018-12-02T04:27:10.991Z,22.63
2018-12-02T04:29:40.719Z,22.57
2018-12-02T04:32:10.615Z,21.90
2018-12-02T04:34:40.150Z,22.53
2018-12-02T04:37:09.674Z,21.77
2018-12-02T04:39:45.820Z,21.47
2018-12-02T04:42:15.550Z,20.27
2018-12-02T04:44:45.144Z,20.00
2018-12-02T04:47:15.493Z,21.03
2018-12-02T04:49:45.208Z,21.13
2018-12-02T04:52:15.137Z,20.00
2018-12-02T04:54:44.548Z,20.43
2018-12-02T04:57:14.387Z,20.17
2018-12-02T04:59:43.713Z,19.60
2018-12-02T05:02:13.517Z,20.93
2018-12-02T05:04:42.856Z,20.70
2018-12-02T05:07:12.391Z,22.20
2018-12-02T05:09:42.661Z,21.30
2018-12-02T05:12:11.984Z,21.63
2018-12-02T05:14:41.330Z,21.60
2018-12-02T05:17:11.259Z,20.83
2018-12-02T05:19:40.611Z,21.40
2018-12-02T05:22:09.982Z,22.07
2018-12-02T05:24:41.217Z,20.33
2018-12-02T05:27:10.524Z,21.47
2018-12-02T05:29:39.868Z,22.80
2018-12-02T05:32:09.183Z,20.47
2018-12-02T05:34:38.537Z,22.67
2018-12-02T05:37:07.909Z,22.07
2018-12-02T05:39:37.165Z,21.53
2018-12-02T05:42:11.705Z,22.00
2018-12-02T05:44:41.058Z,21.03
2018-12-02T05:47:10.476Z,22.23
2018-12-02T05:49:39.827Z,21.17
2018-12-02T05:52:09.148Z,21.23
2018-12-02T05:54:39.218Z,20.73
2018-12-02T05:57:08.666Z,22.70
2018-12-02T05:59:38.826Z,22.27
2018-12-02T06:02:08.210Z,22.00
2018-12-02T06:04:37.587Z,22.57
2018-12-02T06:07:07.272Z,22.83
2018-12-02T06:09:36.577Z,23.40
2018-12-02T06:12:05.968Z,23.00
2018-12-02T06:14:35.646Z,22.07
2018-12-02T06:17:05.025Z,22.67
2018-12-02T06:19:34.368Z,23.80
2018-12-02T06:22:03.741Z,22.10
2018-12-02T06:24:33.048Z,22.10
2018-12-02T06:27:02.469Z,22.47
2018-12-02T06:29:33.327Z,22.80
2018-12-02T06:32:02.660Z,22.23
2018-12-02T06:34:32.331Z,21.63
2018-12-02T06:37:01.696Z,21.03
2018-12-02T06:39:31.664Z,21.40
2018-12-02T06:42:01.567Z,22.50
2018-12-02T06:44:32.396Z,20.77
2018-12-02T06:47:01.751Z,21.37
2018-12-02T06:49:31.889Z,21.83
2018-12-02T06:52:01.229Z,21.20
2018-12-02T06:54:42.755Z,20.33
2018-12-02T06:57:16.896Z,19.73
2018-12-02T06:59:55.797Z,19.20
2018-12-02T07:03:35.738Z,19.00
2018-12-02T07:06:05.121Z,20.17
2018-12-02T07:08:35.080Z,17.80
2018-12-02T07:11:04.526Z,19.17
2018-12-02T07:13:34.242Z,19.77
2018-12-02T07:16:03.566Z,18.70
2018-12-02T07:18:37.046Z,17.80
2018-12-02T07:21:12.374Z,17.27
2018-12-02T07:23:43.758Z,17.33
2018-12-02T07:26:16.537Z,16.80
2018-12-02T07:28:45.993Z,17.93
2018-12-02T07:31:15.301Z,17.77
2018-12-02T07:33:44.866Z,16.97
2018-12-02T07:36:14.192Z,16.70
2018-12-02T07:38:55.096Z,16.63
2018-12-02T07:41:24.536Z,16.60
2018-12-02T07:43:53.805Z,16.20
2018-12-02T07:46:23.183Z,15.53
2018-12-02T07:48:52.513Z,16.23
2018-12-02T07:51:22.083Z,14.87
2018-12-02T07:53:51.492Z,15.37
2018-12-02T07:56:20.834Z,14.83
2018-12-02T07:58:50.159Z,15.07
2018-12-02T08:01:19.493Z,16.33
2018-12-02T08:03:48.922Z,15.10
2018-12-02T08:06:18.335Z,15.37
2018-12-02T08:08:48.010Z,15.23
2018-12-02T08:11:17.828Z,14.90
2018-12-02T08:13:47.112Z,14.90
2018-12-02T08:16:16.402Z,16.73
2018-12-02T08:18:45.951Z,16.03
2018-12-02T08:21:15.591Z,17.17
2018-12-02T08:23:45.193Z,16.23
2018-12-02T08:26:14.607Z,15.30
2018-12-02T08:28:44.292Z,15.33
2018-12-02T08:31:14.590Z,15.97
2018-12-02T08:33:47.635Z,16.10
2018-12-02T08:36:25.595Z,16.57
2018-12-02T08:39:00.121Z,16.37
2018-12-02T08:41:36.607Z,15.80
2018-12-02T08:44:15.320Z,15.63
2018-12-02T08:46:51.614Z,15.20
2018-12-02T08:49:28.962Z,15.53
2018-12-02T08:52:00.246Z,15.10
2018-12-02T08:54:29.587Z,15.87
2018-12-02T08:57:03.280Z,16.40
2018-12-02T08:59:33.223Z,15.73
2018-12-02T09:02:02.701Z,15.27
2018-12-02T09:04:32.129Z,14.37
2018-12-02T09:07:01.513Z,14.73
2018-12-02T09:09:30.960Z,13.00
2018-12-02T09:12:00.508Z,13.77
2018-12-02T09:14:30.787Z,12.93
2018-12-02T09:17:00.831Z,13.10
2018-12-02T09:19:30.406Z,13.67
2018-12-02T09:21:59.883Z,12.73
2018-12-02T09:24:29.218Z,12.80
2018-12-02T09:26:58.568Z,12.37
2018-12-02T09:29:29.658Z,12.77
2018-12-02T09:31:59.015Z,11.70
2018-12-02T09:34:28.365Z,12.53
2018-12-02T09:36:58.097Z,11.57
2018-12-02T09:39:27.087Z,12.90
2018-12-02T09:41:56.422Z,11.67
2018-12-02T09:44:25.967Z,11.40
2018-12-02T09:46:55.264Z,12.17
2018-12-02T09:49:24.635Z,11.97
2018-12-02T09:51:54.075Z,11.83
2018-12-02T09:54:24.896Z,11.27
2018-12-02T09:56:54.352Z,11.43
2018-12-02T09:59:24.049Z,10.30
2018-12-02T10:01:56.954Z,11.30
2018-12-02T10:04:26.383Z,11.60
2018-12-02T10:06:55.972Z,11.67
2018-12-02T10:09:25.334Z,10.33
2018-12-02T10:11:54.669Z,11.70
2018-12-02T10:14:23.993Z,11.53
2018-12-02T10:16:53.487Z,10.97
2018-12-02T10:19:22.856Z,10.40
2018-12-02T10:21:52.299Z,11.00
2018-12-02T10:24:23.518Z,9.73
2018-12-02T10:26:52.844Z,10.53
2018-12-02T10:29:22.314Z,10.37
2018-12-02T10:31:52.019Z,10.57
2018-12-02T10:34:22.039Z,9.70
2018-12-02T10:36:51.834Z,9.77
2018-12-02T10:39:21.427Z,10.03
2018-12-02T10:41:50.943Z,8.77
2018-12-02T10:44:20.609Z,9.30
2018-12-02T10:46:56.809Z,8.90
2018-12-02T10:49:26.502Z,8.27
2018-12-02T10:51:56.180Z,8.07
2018-12-02T10:54:25.827Z,8.37
2018-12-02T10:56:55.884Z,9.00
2018-12-02T10:59:25.645Z,10.10
2018-12-02T11:02:00.305Z,8.73
2018-12-02T11:04:29.974Z,8.87
2018-12-02T11:06:59.611Z,8.70
2018-12-02T11:09:29.277Z,8.33
2018-12-02T11:12:08.715Z,7.83
2018-12-02T11:14:38.429Z,8.53
2018-12-02T11:17:08.009Z,7.80
2018-12-02T11:19:37.598Z,7.93
2018-12-02T11:22:07.110Z,7.67
2018-12-02T11:24:36.763Z,6.97
2018-12-02T11:27:06.993Z,7.23
2018-12-02T11:29:36.654Z,7.33
2018-12-02T11:32:06.931Z,7.90
2018-12-02T11:34:36.571Z,7.10
2018-12-02T11:37:06.976Z,7.83
2018-12-02T11:39:38.038Z,7.37
2018-12-02T11:42:07.670Z,7.40
2018-12-02T11:44:37.066Z,7.30
2018-12-02T11:47:06.444Z,6.10
2018-12-02T11:49:35.997Z,6.70
2018-12-02T11:52:05.541Z,7.10
2018-12-02T11:54:34.985Z,6.93
2018-12-02T11:57:04.723Z,6.70
2018-12-02T11:59:36.267Z,6.20
2018-12-02T12:02:07.762Z,6.30
2018-12-02T12:04:44.262Z,6.50
2018-12-02T12:07:15.082Z,6.63
2018-12-02T12:09:44.706Z,6.37
2018-12-02T12:12:14.861Z,6.40
2018-12-02T12:14:44.332Z,7.03
2018-12-02T12:17:13.722Z,5.73
2018-12-02T12:19:43.236Z,6.03
2018-12-02T12:22:12.649Z,5.90
2018-12-02T12:24:42.565Z,6.33
2018-12-02T12:27:12.112Z,5.97
2018-12-02T12:29:41.591Z,6.03
2018-12-02T12:32:11.302Z,6.37
2018-12-02T12:34:40.817Z,5.10
2018-12-02T12:37:10.299Z,5.93
2018-12-02T12:39:40.814Z,6.27
2018-12-02T12:42:10.330Z,5.33
2018-12-02T12:44:39.837Z,6.00
2018-12-02T12:47:09.328Z,5.87
2018-12-02T12:49:38.848Z,5.67
2018-12-02T12:52:08.405Z,6.80
2018-12-02T12:54:38.600Z,7.43
2018-12-02T12:57:08.181Z,6.87
2018-12-02T12:59:37.661Z,6.57
2018-12-02T13:02:07.128Z,7.50
2018-12-02T13:04:36.582Z,7.23
2018-12-02T13:07:06.218Z,6.70
2018-12-02T13:09:35.939Z,7.20
2018-12-02T13:12:05.722Z,8.40
2018-12-02T13:14:37.144Z,7.83
2018-12-02T13:17:07.273Z,7.73
2018-12-02T13:19:36.797Z,7.90
2018-12-02T13:22:06.222Z,7.80
2018-12-02T13:24:35.769Z,7.67
2018-12-02T13:27:06.178Z,8.07
2018-12-02T13:29:36.564Z,7.97
2018-12-02T13:32:06.888Z,7.27
2018-12-02T13:34:39.992Z,8.10
2018-12-02T13:40:12.990Z,8.90
2018-12-02T13:42:43.339Z,8.37
2018-12-02T13:45:14.948Z,8.90
2018-12-02T13:47:44.383Z,9.73
2018-12-02T13:50:14.840Z,8.87
2018-12-02T13:52:44.494Z,9.93
2018-12-02T13:55:17.918Z,10.40
2018-12-02T13:57:47.869Z,10.53
2018-12-02T14:00:22.446Z,11.10
2018-12-02T14:03:02.247Z,12.60
2018-12-02T14:05:32.739Z,11.40
2018-12-02T14:08:02.290Z,11.80
2018-12-02T14:10:31.709Z,11.90
2018-12-02T14:13:05.866Z,12.27
2018-12-02T14:15:42.726Z,13.03
2018-12-02T14:18:15.841Z,12.83
2018-12-02T14:20:45.312Z,12.80
2018-12-02T14:23:14.901Z,13.50
2018-12-02T14:25:44.326Z,14.47
2018-12-02T14:28:15.558Z,14.77
2018-12-02T14:30:45.802Z,14.63
2018-12-02T14:33:15.252Z,15.47
2018-12-02T14:35:44.716Z,13.77
2018-12-02T14:38:14.111Z,15.67
2018-12-02T14:40:43.511Z,16.17
2018-12-02T14:43:12.947Z,15.37
2018-12-02T14:45:43.405Z,14.83
2018-12-02T14:48:12.747Z,15.73
2018-12-02T14:50:43.564Z,14.87
2018-12-02T14:53:13.385Z,15.57
2018-12-02T14:55:42.995Z,15.80
2018-12-02T14:58:12.877Z,16.47
2018-12-02T15:00:42.900Z,16.23
2018-12-02T15:03:12.249Z,17.10
2018-12-02T15:05:41.617Z,16.93
2018-12-02T15:08:11.414Z,15.83
2018-12-02T15:10:40.808Z,16.63
2018-12-02T15:13:10.172Z,16.53
2018-12-02T15:15:41.522Z,16.60
2018-12-02T15:18:10.989Z,18.23
2018-12-02T15:20:40.490Z,17.77
2018-12-02T15:23:09.848Z,18.23
2018-12-02T15:25:39.298Z,18.20
2018-12-02T15:28:08.703Z,18.27
2018-12-02T15:30:38.765Z,19.40
2018-12-02T15:33:08.277Z,17.97
2018-12-02T15:35:38.523Z,17.30
2018-12-02T15:38:07.909Z,18.03
2018-12-02T15:40:37.347Z,19.23
2018-12-02T15:43:06.945Z,19.20
2018-12-02T15:45:36.533Z,19.27
2018-12-02T15:48:06.255Z,19.87
2018-12-02T15:50:36.371Z,18.73
2018-12-02T15:53:05.933Z,19.63
2018-12-02T15:55:36.050Z,20.30
2018-12-02T15:58:08.287Z,18.47
2018-12-02T16:00:40.668Z,20.10
2018-12-02T16:03:10.087Z,18.67
2018-12-02T16:05:39.566Z,19.67
2018-12-02T16:08:09.342Z,18.40
2018-12-02T16:10:38.712Z,19.27
2018-12-02T16:13:09.712Z,18.77
2018-12-02T16:15:40.812Z,19.07
2018-12-02T16:18:11.637Z,19.00
2018-12-02T16:20:49.391Z,20.10
2018-12-02T16:23:22.761Z,20.70
2018-12-02T16:25:52.246Z,20.03
2018-12-02T16:28:22.351Z,19.60
2018-12-02T16:30:53.203Z,19.50
2018-12-02T16:33:22.593Z,31.90
2018-12-02T16:35:52.004Z,36.13
2018-12-02T16:38:21.354Z,62.70
2018-12-02T16:40:50.768Z,100.67
2018-12-02T16:43:20.202Z,53.23
2018-12-02T16:45:49.598Z,53.67
2018-12-02T16:48:18.962Z,53.67
2018-12-02T16:50:49.681Z,68.17
2018-12-02T16:53:22.576Z,43.97
2018-12-02T16:55:57.537Z,42.80
2018-12-02T16:58:54.593Z,25.87
2018-12-02T17:01:25.768Z,32.33
2018-12-02T17:03:58.721Z,36.27
2018-12-02T17:06:28.223Z,41.33
2018-12-02T17:08:58.542Z,52.30
2018-12-02T17:11:28.970Z,49.33
2018-12-02T17:13:58.397Z,56.77
2018-12-02T17:16:27.769Z,114.70
2018-12-02T17:18:57.170Z,61.40
2018-12-02T17:21:26.660Z,54.60
2018-12-02T17:23:56.052Z,45.93
2018-12-02T17:26:25.396Z,50.20
2018-12-02T17:28:55.567Z,40.70
2018-12-02T17:31:27.838Z,36.30
2018-12-02T17:33:57.244Z,58.77
2018-12-02T17:36:26.649Z,44.20
2018-12-02T17:38:59.527Z,42.00
2018-12-02T17:41:31.733Z,34.67
2018-12-02T17:44:01.129Z,33.93
2018-12-02T17:46:30.752Z,51.50
2018-12-02T17:49:00.128Z,24.73
2018-12-02T17:51:29.517Z,45.77
2018-12-02T17:53:58.968Z,27.60
2018-12-02T17:56:28.464Z,34.27
2018-12-02T17:58:57.847Z,37.50
2018-12-02T18:01:27.289Z,32.90
2018-12-02T18:03:56.759Z,36.20
2018-12-02T18:06:26.110Z,22.00
2018-12-02T18:08:55.590Z,22.40
2018-12-02T18:11:25.309Z,30.63
2018-12-02T18:13:54.650Z,39.60
2018-12-02T18:16:24.053Z,24.20
2018-12-02T18:18:53.641Z,20.30
2018-12-02T18:21:23.016Z,18.90
2018-12-02T18:23:52.342Z,20.73
2018-12-02T18:26:21.679Z,18.90
2018-12-02T18:28:51.081Z,30.70
2018-12-02T18:31:20.519Z,30.70
2018-12-02T18:33:49.935Z,24.50
2018-12-02T18:36:22.107Z,21.57
2018-12-02T18:38:51.615Z,20.23
2018-12-02T18:41:26.759Z,19.90
2018-12-02T18:43:56.891Z,18.53
2018-12-02T18:46:26.365Z,16.17
2018-12-02T18:48:55.760Z,17.87
2018-12-02T18:51:25.094Z,17.60
2018-12-02T18:53:54.446Z,18.53
2018-12-02T18:56:23.933Z,17.73
2018-12-02T18:58:53.545Z,17.47
2018-12-02T19:01:23.317Z,18.93
2018-12-02T19:03:52.907Z,18.40
2018-12-02T19:06:22.276Z,17.17
2018-12-02T19:08:51.681Z,18.33
2018-12-02T19:11:21.708Z,17.03
2018-12-02T19:13:52.353Z,16.37
2018-12-02T19:16:20.711Z,15.40
2018-12-02T19:18:50.533Z,14.70
2018-12-02T19:21:27.365Z,15.20
2018-12-02T19:23:57.993Z,15.97
2018-12-02T19:26:28.366Z,15.83
2018-12-02T19:28:57.827Z,15.07
2018-12-02T19:31:27.243Z,14.00
2018-12-02T19:33:57.556Z,13.97
2018-12-02T19:36:33.558Z,14.83
2018-12-02T19:39:03.031Z,13.87
2018-12-02T19:41:32.927Z,19.20
2018-12-02T19:44:02.367Z,15.30
2018-12-02T19:46:31.740Z,14.07
2018-12-02T19:49:01.194Z,13.77
2018-12-02T19:51:30.588Z,15.37
2018-12-02T19:54:00.023Z,14.23
2018-12-02T19:56:29.404Z,14.50
2018-12-02T19:58:58.725Z,14.43
2018-12-02T20:01:28.045Z,13.30
2018-12-02T20:03:57.375Z,13.10
2018-12-02T20:06:26.759Z,13.87
2018-12-02T20:08:56.089Z,12.60
2018-12-02T20:11:25.773Z,38.40
2018-12-02T20:13:55.169Z,70.47
2018-12-02T20:16:24.541Z,81.43
2018-12-02T20:18:53.953Z,73.53
2018-12-02T20:21:25.104Z,99.73
2018-12-02T20:23:59.500Z,134.27
2018-12-02T20:26:28.924Z,64.70
2018-12-02T20:28:58.735Z,53.03
2018-12-02T20:31:29.243Z,74.37
2018-12-02T20:33:58.665Z,62.07
2018-12-02T20:36:27.978Z,26.20
2018-12-02T20:38:57.344Z,45.77
2018-12-02T20:41:26.729Z,47.27
2018-12-02T20:43:56.285Z,54.70
2018-12-02T20:46:25.643Z,39.03
2018-12-02T20:48:56.196Z,41.80
2018-12-02T20:51:25.546Z,42.30
2018-12-02T20:53:55.186Z,34.40
2018-12-02T20:56:24.565Z,46.73
2018-12-02T20:58:54.120Z,39.23
2018-12-02T21:01:23.590Z,24.93
2018-12-02T21:03:53.064Z,35.10
2018-12-02T21:06:22.844Z,42.47
2018-12-02T21:08:52.293Z,40.50
2018-12-02T21:11:22.230Z,28.67
2018-12-02T21:13:51.573Z,30.77
2018-12-02T21:16:21.696Z,22.20
2018-12-02T21:18:51.384Z,24.60
2018-12-02T21:21:21.936Z,26.50
2018-12-02T21:23:51.717Z,23.27
2018-12-02T21:26:22.159Z,34.67
2018-12-02T21:28:51.950Z,24.00
2018-12-02T21:31:22.319Z,22.60
2018-12-02T21:33:51.987Z,18.13
2018-12-02T21:36:22.592Z,17.30
2018-12-02T21:38:52.360Z,23.07
2018-12-02T21:41:22.849Z,29.47
2018-12-02T21:43:53.411Z,21.00
2018-12-02T21:46:29.713Z,15.80
2018-12-02T21:48:59.786Z,17.90
2018-12-02T21:51:30.462Z,18.57
2018-12-02T21:54:01.924Z,16.80
2018-12-02T21:56:32.370Z,18.60
2018-12-02T21:59:02.188Z,16.97
2018-12-02T22:01:33.102Z,17.10
2018-12-02T22:04:04.014Z,17.67
2018-12-02T22:06:34.247Z,14.23
2018-12-02T22:09:04.375Z,16.33
2018-12-02T22:11:35.982Z,15.47
2018-12-02T22:14:06.230Z,14.90
2018-12-02T22:16:36.346Z,15.67
2018-12-02T22:19:06.797Z,15.20
2018-12-02T22:21:36.863Z,15.47
2018-12-02T22:24:07.359Z,16.07
2018-12-02T22:26:38.718Z,16.03
2018-12-02T22:29:16.085Z,15.73
2018-12-02T22:31:58.395Z,15.13
2018-12-02T22:34:28.938Z,14.97
2018-12-02T22:36:58.612Z,15.13
2018-12-02T22:39:28.284Z,14.20
2018-12-02T22:41:58.063Z,14.43
2018-12-02T22:44:31.460Z,14.50
2018-12-02T22:46:57.850Z,14.53
2018-12-02T22:49:27.746Z,14.27
2018-12-02T22:51:57.501Z,14.13
2018-12-02T22:54:27.316Z,12.83
2018-12-02T22:56:56.971Z,13.80
2018-12-02T22:59:27.196Z,13.37
2018-12-02T23:02:36.064Z,13.27
2018-12-02T23:05:06.550Z,12.70
2018-12-02T23:07:36.351Z,13.67
2018-12-02T23:10:06.363Z,13.83
2018-12-02T23:12:36.142Z,13.40
2018-12-02T23:15:06.838Z,12.97
2018-12-02T23:17:37.143Z,12.40
2018-12-02T23:20:10.752Z,13.23
2018-12-02T23:22:40.589Z,12.10
2018-12-02T23:25:14.124Z,11.60
2018-12-02T23:27:44.565Z,12.23
2018-12-02T23:30:22.251Z,11.10
2018-12-02T23:32:52.298Z,11.20
2018-12-02T23:35:22.049Z,11.10
2018-12-02T23:37:51.853Z,11.83
2018-12-02T23:40:24.086Z,11.80
2018-12-02T23:42:53.930Z,12.23
2018-12-02T23:45:23.678Z,11.00
2018-12-02T23:47:53.537Z,10.93
2018-12-02T23:50:24.803Z,11.10
2018-12-02T23:52:54.545Z,11.40
2018-12-02T23:55:24.283Z,10.93
2018-12-02T23:57:54.601Z,11.00
